KINL/INL METAR and TAF weather

Enter ICAO airport designator
Station Type Date Time Source
KINL METAR 2020/04/06 11:55 UTC NOAA

KINL 061155Z AUTO 11004KT 10SM OVC110 02/M01 A2996 RMK AO2 SLP157 T00221011 10033 20000 56013 $


Station Type Date Time Source
KINL Decoded METAR 2020/04/06 11:55 UTC NOAA

FALLS INTERNATIONAL AIRPORT , MN, United States (KINL) 48-34N 093-24W 360M
Apr 06, 2020 - 07:55 AM EDT / 2020.04.06 1155 UTC
Wind: from the ESE (110 degrees) at 5 MPH (4 KT):0
Visibility: 10 mile(s):0
Sky conditions: overcast
Temperature: 36.0 F (2.2 C)
Dew Point: 30.0 F (-1.1 C)
Relative Humidity: 78%
Pressure (altimeter): 29.96 in. Hg (1014 hPa)
Pressure tendency: 0.04 inches (1.3 hPa) lower than three hours ago
ob: KINL 061155Z AUTO 11004KT 10SM OVC110 02/M01 A2996 RMK AO2 SLP157 T00221011 10033 20000 56013
cycle: 12

Station Type Date Time Source
KINL TAF 2020/04/06 12:34 UTC NOAA

TAF KINL 061132Z 0612/0712 11007KT P6SM BKN060 OVC120
FM070300 12007KT P6SM OVC035
FM070500 13007KT P6SM OVC030
FM070700 13007KT 6SM -RA BR OVC015
FM070900 13007KT 5SM -RA BR OVC006

Example: see airport list